createdAt,value
2022-12-24T00:01:38.972Z,2.97
2022-12-24T00:04:06.249Z,3.01
2022-12-24T00:06:33.271Z,2.99
2022-12-24T00:09:00.283Z,2.94
2022-12-24T00:11:27.201Z,3.00
2022-12-24T00:13:54.111Z,3.07
2022-12-24T00:16:20.973Z,3.00
2022-12-24T00:18:47.938Z,3.01
2022-12-24T00:21:16.268Z,3.01
2022-12-24T00:23:43.780Z,2.95
2022-12-24T00:26:11.454Z,2.86
2022-12-24T00:28:38.484Z,2.97
2022-12-24T00:31:13.829Z,2.89
2022-12-24T00:33:41.971Z,2.82
2022-12-24T00:36:09.673Z,2.92
2022-12-24T00:38:37.366Z,2.90
2022-12-24T00:41:06.529Z,2.91
2022-12-24T00:43:33.528Z,2.92
2022-12-24T00:46:00.527Z,2.86
2022-12-24T00:48:27.496Z,2.86
2022-12-24T00:50:54.714Z,2.86
2022-12-24T00:53:21.830Z,2.93
2022-12-24T00:55:48.797Z,3.01
2022-12-24T00:58:15.694Z,3.02
2022-12-24T01:00:42.768Z,2.93
2022-12-24T01:03:09.814Z,2.99
2022-12-24T01:05:36.827Z,2.97
2022-12-24T01:08:03.763Z,2.92
2022-12-24T01:10:30.845Z,3.00
2022-12-24T01:12:57.750Z,2.96
2022-12-24T01:15:24.981Z,3.00
2022-12-24T01:17:52.069Z,3.06
2022-12-24T01:20:19.234Z,2.99
2022-12-24T01:22:46.383Z,2.97
2022-12-24T01:25:13.355Z,2.99
2022-12-24T01:27:40.341Z,3.03
2022-12-24T01:30:09.636Z,2.99
2022-12-24T01:32:36.722Z,2.99
2022-12-24T01:35:04.104Z,3.06
2022-12-24T01:37:31.003Z,3.01
2022-12-24T01:40:17.942Z,3.03
2022-12-24T01:43:06.825Z,3.06
2022-12-24T01:45:48.775Z,3.06
2022-12-24T01:48:23.324Z,3.03
2022-12-24T01:50:56.120Z,3.11
2022-12-24T01:53:23.948Z,3.16
2022-12-24T01:55:51.509Z,3.11
2022-12-24T01:58:21.221Z,3.16
2022-12-24T02:00:48.514Z,3.18
2022-12-24T02:03:15.736Z,3.17
2022-12-24T02:05:48.600Z,3.19
2022-12-24T02:08:16.926Z,3.13
2022-12-24T02:10:44.954Z,3.10
2022-12-24T02:13:12.798Z,3.19
2022-12-24T02:15:45.621Z,3.06
2022-12-24T02:18:26.671Z,3.15
2022-12-24T02:21:31.369Z,3.09
2022-12-24T02:23:58.306Z,3.08
2022-12-24T02:26:25.143Z,3.12
2022-12-24T02:29:31.202Z,3.08
2022-12-24T02:32:24.608Z,3.04
2022-12-24T02:35:16.079Z,2.97
2022-12-24T02:38:18.119Z,3.01
2022-12-24T02:40:57.362Z,2.98
2022-12-24T02:43:29.401Z,3.11
2022-12-24T02:46:01.415Z,3.06
2022-12-24T02:48:30.733Z,2.96
2022-12-24T02:51:02.878Z,2.92
2022-12-24T02:53:30.714Z,2.99
2022-12-24T02:56:31.068Z,3.04
2022-12-24T02:59:07.192Z,3.03
2022-12-24T03:01:53.093Z,3.00
2022-12-24T03:04:39.844Z,2.98
2022-12-24T03:07:23.879Z,2.98
2022-12-24T03:26:53.262Z,1.85
2022-12-24T03:29:20.550Z,2.02
2022-12-24T03:31:51.174Z,2.17
2022-12-24T03:34:19.311Z,2.28
2022-12-24T03:36:48.615Z,2.34
2022-12-24T03:39:15.728Z,2.40
2022-12-24T03:41:42.714Z,2.45
2022-12-24T03:44:09.856Z,2.52
2022-12-24T03:46:36.909Z,2.60
2022-12-24T03:49:03.784Z,2.61
2022-12-24T03:51:30.831Z,2.71
2022-12-24T03:53:58.416Z,2.64
2022-12-24T03:56:26.385Z,2.64
2022-12-24T03:58:53.812Z,2.67
2022-12-24T04:01:20.979Z,2.70
2022-12-24T04:03:48.064Z,2.57
2022-12-24T04:06:18.092Z,2.62
2022-12-24T04:08:45.359Z,2.55
2022-12-24T04:11:37.925Z,2.54
2022-12-24T04:14:04.859Z,2.64
2022-12-24T04:16:31.919Z,2.71
2022-12-24T04:19:07.457Z,2.71
2022-12-24T04:21:34.267Z,2.76
2022-12-24T04:24:01.359Z,2.75
2022-12-24T04:26:28.370Z,2.73
2022-12-24T04:28:55.367Z,2.77
2022-12-24T04:31:22.513Z,2.75
2022-12-24T04:33:52.015Z,2.68
2022-12-24T04:36:20.290Z,2.63
2022-12-24T04:38:48.931Z,2.58
2022-12-24T04:41:24.299Z,2.60
2022-12-24T04:43:53.843Z,2.53
2022-12-24T04:46:26.724Z,2.56
2022-12-24T04:48:54.644Z,2.60
2022-12-24T04:51:22.064Z,2.54
2022-12-24T04:53:49.098Z,2.60
2022-12-24T04:56:27.745Z,2.61
2022-12-24T04:58:55.678Z,2.55
2022-12-24T05:01:25.406Z,2.56
2022-12-24T05:03:52.930Z,2.64
2022-12-24T05:06:22.748Z,2.75
2022-12-24T05:08:50.111Z,2.74
2022-12-24T05:11:17.386Z,2.79
2022-12-24T05:13:47.518Z,2.62
2022-12-24T05:16:17.145Z,2.67
2022-12-24T05:18:44.264Z,2.65
2022-12-24T05:21:17.026Z,2.60
2022-12-24T05:24:02.554Z,2.71
2022-12-24T05:26:42.887Z,2.75
2022-12-24T05:29:12.426Z,2.78
2022-12-24T05:31:40.463Z,2.85
2022-12-24T05:34:08.476Z,2.86
2022-12-24T05:36:35.628Z,2.78
2022-12-24T05:39:02.807Z,2.82
2022-12-24T05:41:29.810Z,2.71
2022-12-24T05:43:56.822Z,2.78
2022-12-24T05:46:24.611Z,2.93
2022-12-24T05:48:52.863Z,3.11
2022-12-24T05:51:22.535Z,3.27
2022-12-24T05:53:51.166Z,3.57
2022-12-24T05:56:21.936Z,3.74
2022-12-24T05:58:50.071Z,4.10
2022-12-24T06:01:17.357Z,4.45
2022-12-24T06:03:44.421Z,4.64
2022-12-24T06:06:14.645Z,5.11
2022-12-24T06:08:42.528Z,5.58
2022-12-24T06:11:14.070Z,5.77
2022-12-24T06:13:41.942Z,6.03
2022-12-24T06:16:12.580Z,6.87
2022-12-24T06:18:39.714Z,7.63
2022-12-24T06:21:07.318Z,8.13
2022-12-24T06:23:36.704Z,9.00
2022-12-24T06:26:05.088Z,9.74
2022-12-24T06:28:34.194Z,10.57
2022-12-24T06:31:03.123Z,11.82
2022-12-24T06:33:31.904Z,12.72
2022-12-24T06:35:59.616Z,13.24
2022-12-24T06:38:26.879Z,14.08
2022-12-24T06:40:56.019Z,14.89
2022-12-24T06:43:23.885Z,15.06
2022-12-24T06:45:50.899Z,14.94
2022-12-24T06:48:18.064Z,15.49
2022-12-24T06:50:45.141Z,16.11
2022-12-24T06:53:12.558Z,16.64
2022-12-24T06:55:39.682Z,16.94
2022-12-24T06:58:06.553Z,16.73
2022-12-24T07:00:33.594Z,17.83
2022-12-24T07:03:00.881Z,17.37
2022-12-24T07:05:28.554Z,17.10
2022-12-24T07:07:55.693Z,17.59
2022-12-24T07:10:23.013Z,16.45
2022-12-24T07:12:49.955Z,16.31
2022-12-24T07:15:17.546Z,16.04
2022-12-24T07:17:44.488Z,15.38
2022-12-24T07:20:15.006Z,14.28
2022-12-24T07:22:42.822Z,13.22
2022-12-24T07:25:10.757Z,15.11
2022-12-24T07:27:38.761Z,15.94
2022-12-24T07:30:06.524Z,17.79
2022-12-24T07:32:33.546Z,17.17
2022-12-24T07:35:00.525Z,18.64
2022-12-24T07:37:27.501Z,17.74
2022-12-24T07:39:54.555Z,18.48
2022-12-24T07:42:21.959Z,18.09
2022-12-24T07:44:49.544Z,18.91
2022-12-24T07:47:16.495Z,19.51
2022-12-24T07:49:43.573Z,20.38
2022-12-24T07:52:10.600Z,20.69
2022-12-24T07:54:37.463Z,20.98
2022-12-24T07:57:04.617Z,20.90
2022-12-24T07:59:31.702Z,20.76
2022-12-24T08:01:58.877Z,21.91
2022-12-24T08:04:25.924Z,22.85
2022-12-24T08:06:53.005Z,22.49
2022-12-24T08:09:20.083Z,21.38
2022-12-24T08:11:52.039Z,21.70
2022-12-24T08:14:19.653Z,21.22
2022-12-24T08:16:46.729Z,20.93
2022-12-24T08:19:13.841Z,21.88
2022-12-24T08:21:40.871Z,21.97
2022-12-24T08:24:07.810Z,22.06
2022-12-24T08:26:34.904Z,21.56
2022-12-24T08:29:02.897Z,21.28
2022-12-24T08:31:30.517Z,21.28
2022-12-24T08:33:57.591Z,21.32
2022-12-24T08:36:24.511Z,21.60
2022-12-24T08:38:51.549Z,20.86
2022-12-24T08:41:18.429Z,20.31
2022-12-24T08:43:45.441Z,20.47
2022-12-24T08:46:12.414Z,19.64
2022-12-24T08:48:39.745Z,19.12
2022-12-24T08:51:11.606Z,19.43
2022-12-24T08:53:39.574Z,19.97
2022-12-24T08:56:08.914Z,20.68
2022-12-24T08:58:36.329Z,21.54
2022-12-24T09:01:14.561Z,21.48
2022-12-24T09:03:42.359Z,21.80
2022-12-24T09:06:09.962Z,21.22
2022-12-24T09:08:37.070Z,20.30
2022-12-24T09:11:16.085Z,20.54
2022-12-24T09:13:44.837Z,19.73
2022-12-24T09:16:12.309Z,21.16
2022-12-24T09:18:40.098Z,19.63
2022-12-24T09:21:18.820Z,20.96
2022-12-24T09:23:48.062Z,20.58
2022-12-24T09:26:21.096Z,20.16
2022-12-24T09:28:48.688Z,19.17
2022-12-24T09:31:16.697Z,18.65
2022-12-24T09:33:45.065Z,20.12
2022-12-24T09:36:12.347Z,20.16
2022-12-24T09:38:42.544Z,20.44
2022-12-24T09:41:55.117Z,22.65
2022-12-24T09:44:37.092Z,21.45
2022-12-24T09:47:13.324Z,21.83
2022-12-24T09:49:46.653Z,20.94
2022-12-24T09:52:29.323Z,22.45
2022-12-24T09:55:07.231Z,22.31
2022-12-24T09:57:39.027Z,22.04
2022-12-24T10:00:18.122Z,22.77
2022-12-24T10:02:45.553Z,24.22
2022-12-24T10:05:17.814Z,24.22
2022-12-24T10:08:33.037Z,23.88
2022-12-24T10:11:20.400Z,25.38
2022-12-24T10:14:05.711Z,25.26
2022-12-24T10:16:42.070Z,25.05
2022-12-24T10:19:27.085Z,26.72
2022-12-24T10:21:56.899Z,25.81
2022-12-24T10:24:28.856Z,25.45
2022-12-24T10:27:02.982Z,24.85
2022-12-24T10:29:42.095Z,23.54
2022-12-24T10:32:09.066Z,23.74
2022-12-24T10:34:44.498Z,22.62
2022-12-24T10:37:17.774Z,22.72
2022-12-24T10:39:44.913Z,22.38
2022-12-24T10:42:14.950Z,23.33
2022-12-24T10:44:42.470Z,23.90
2022-12-24T10:47:10.815Z,22.87
2022-12-24T10:49:46.020Z,21.60
2022-12-24T10:52:16.057Z,21.20
2022-12-24T10:55:09.385Z,22.22
2022-12-24T10:57:36.775Z,19.42
2022-12-24T11:00:06.512Z,20.46
2022-12-24T11:02:33.574Z,20.14
2022-12-24T11:05:03.570Z,19.93
2022-12-24T11:07:32.523Z,20.04
2022-12-24T11:10:02.160Z,21.27
2022-12-24T11:13:00.212Z,20.14
2022-12-24T11:15:35.281Z,20.50
2022-12-24T11:18:13.916Z,19.93
2022-12-24T11:20:41.858Z,20.81
2022-12-24T11:23:16.586Z,20.46
2022-12-24T11:25:49.372Z,21.68
2022-12-24T11:28:27.834Z,23.81
2022-12-24T11:31:02.000Z,23.58
2022-12-24T11:33:30.977Z,25.46
2022-12-24T11:36:06.856Z,25.45
2022-12-24T11:38:35.472Z,25.36
2022-12-24T11:41:10.707Z,23.44
2022-12-24T11:43:44.669Z,22.83
2022-12-24T11:46:15.336Z,23.09
2022-12-24T11:48:42.467Z,22.47
2022-12-24T11:51:22.466Z,21.70
2022-12-24T11:53:49.372Z,20.57
2022-12-24T11:56:30.091Z,19.66
2022-12-24T11:59:02.457Z,18.13
2022-12-24T12:01:45.924Z,16.65
2022-12-24T12:04:19.227Z,16.27
2022-12-24T12:06:51.039Z,15.92
2022-12-24T12:09:22.847Z,16.27
2022-12-24T12:12:01.136Z,16.55
2022-12-24T12:14:33.651Z,18.33
2022-12-24T12:17:25.789Z,18.69
2022-12-24T12:20:09.743Z,19.42
2022-12-24T12:22:47.086Z,21.66
2022-12-24T12:25:26.664Z,22.42
2022-12-24T12:27:56.987Z,22.10
2022-12-24T12:30:24.796Z,22.90
2022-12-24T12:32:59.511Z,22.41
2022-12-24T12:35:32.017Z,21.56
2022-12-24T12:38:06.089Z,20.57
2022-12-24T12:40:45.574Z,19.17
2022-12-24T12:43:34.372Z,18.09
2022-12-24T12:46:04.365Z,17.37
2022-12-24T12:49:00.340Z,16.80
2022-12-24T12:51:51.835Z,16.39
2022-12-24T12:54:55.529Z,15.47
2022-12-24T12:57:26.725Z,15.15
2022-12-24T13:00:00.179Z,15.17
2022-12-24T13:02:49.027Z,14.88
2022-12-24T13:05:32.978Z,14.70
2022-12-24T13:08:37.486Z,13.88
2022-12-24T13:11:10.292Z,13.61
2022-12-24T13:14:14.547Z,13.58
2022-12-24T13:17:13.446Z,13.59
2022-12-24T13:19:43.369Z,13.54
2022-12-24T13:22:18.780Z,13.54
2022-12-24T13:24:55.486Z,13.57
2022-12-24T13:27:25.391Z,13.49
2022-12-24T13:30:21.217Z,13.46
2022-12-24T13:32:53.369Z,13.42
2022-12-24T13:35:20.190Z,13.55
2022-12-24T13:37:48.533Z,13.52
2022-12-24T13:40:26.621Z,13.68
2022-12-24T13:42:59.692Z,13.53
2022-12-24T13:45:29.922Z,13.72
2022-12-24T13:48:06.072Z,13.96
2022-12-24T13:50:36.193Z,13.98
2022-12-24T13:53:05.520Z,14.06
2022-12-24T13:55:33.641Z,13.97
2022-12-24T13:58:04.545Z,13.97
2022-12-24T14:00:42.758Z,13.90
2022-12-24T14:03:15.707Z,13.75
2022-12-24T14:05:42.501Z,13.81
2022-12-24T14:08:28.498Z,13.72
2022-12-24T14:11:02.829Z,13.63
2022-12-24T14:13:38.895Z,13.54
2022-12-24T14:16:14.968Z,13.44
2022-12-24T14:18:46.249Z,13.47
2022-12-24T14:21:21.854Z,13.38
2022-12-24T14:24:26.412Z,13.19
2022-12-24T14:27:07.652Z,13.18
2022-12-24T14:29:41.656Z,13.20
2022-12-24T14:32:15.849Z,13.17
2022-12-24T14:34:43.066Z,12.83
2022-12-24T14:37:13.032Z,12.91
2022-12-24T14:39:44.898Z,12.89
2022-12-24T14:42:33.372Z,12.74
2022-12-24T14:45:07.587Z,12.81
2022-12-24T14:47:52.405Z,12.77
2022-12-24T14:50:57.161Z,12.64
2022-12-24T14:53:39.616Z,12.40
2022-12-24T14:56:14.663Z,12.38
2022-12-24T14:58:43.619Z,12.19
2022-12-24T15:01:27.200Z,11.98
2022-12-24T15:04:09.507Z,11.97
2022-12-24T15:06:39.976Z,11.97
2022-12-24T15:09:17.567Z,11.86
2022-12-24T15:11:46.765Z,11.85
2022-12-24T15:14:14.229Z,11.74
2022-12-24T15:29:03.608Z,11.03
2022-12-24T15:31:31.914Z,11.06
2022-12-24T15:34:01.920Z,11.23
2022-12-24T15:36:35.063Z,11.20
2022-12-24T15:39:07.019Z,11.37
2022-12-24T15:42:10.612Z,11.39
2022-12-24T15:44:39.408Z,11.47
2022-12-24T15:47:21.957Z,11.56
2022-12-24T15:49:52.378Z,11.62
2022-12-24T15:52:24.735Z,11.66
2022-12-24T15:54:57.435Z,11.71
2022-12-24T15:57:31.787Z,11.67
2022-12-24T16:00:01.221Z,11.79
2022-12-24T16:02:45.500Z,11.73
2022-12-24T16:05:30.469Z,11.73
2022-12-24T16:08:22.251Z,11.72
2022-12-24T16:10:50.801Z,11.55
2022-12-24T16:13:25.047Z,11.70
2022-12-24T16:15:54.015Z,11.65
2022-12-24T16:18:54.476Z,11.69
2022-12-24T16:21:26.168Z,11.69
2022-12-24T16:23:56.025Z,11.69
2022-12-24T16:26:23.329Z,11.59
2022-12-24T16:28:51.037Z,11.61
2022-12-24T16:31:20.382Z,11.53
2022-12-24T16:33:47.595Z,11.42
2022-12-24T16:36:14.695Z,11.45
2022-12-24T16:39:00.398Z,11.52
2022-12-24T16:41:27.347Z,11.49
2022-12-24T16:43:54.236Z,11.50
2022-12-24T16:46:21.283Z,11.55
2022-12-24T16:48:49.160Z,11.45
2022-12-24T16:51:16.139Z,11.31
2022-12-24T16:53:43.254Z,11.18
2022-12-24T16:56:10.154Z,10.97
2022-12-24T16:58:37.187Z,10.73
2022-12-24T17:01:09.211Z,10.57
2022-12-24T17:03:36.720Z,10.41
2022-12-24T17:06:07.671Z,10.32
2022-12-24T17:08:34.948Z,10.31
2022-12-24T17:11:01.852Z,10.20
2022-12-24T17:13:31.538Z,10.05
2022-12-24T17:16:00.745Z,10.01
2022-12-24T17:18:27.801Z,9.95
2022-12-24T17:21:04.123Z,9.86
2022-12-24T17:23:31.039Z,9.77
2022-12-24T17:25:58.790Z,9.83
2022-12-24T17:28:26.141Z,9.76
2022-12-24T17:30:53.299Z,9.70
2022-12-24T17:33:20.330Z,9.73
2022-12-24T17:35:49.262Z,9.80
2022-12-24T17:38:16.281Z,9.71
2022-12-24T17:40:43.151Z,9.76
2022-12-24T17:43:11.027Z,9.85
2022-12-24T17:45:42.470Z,9.80
2022-12-24T17:48:09.825Z,9.76
2022-12-24T17:50:40.164Z,9.86
2022-12-24T17:53:07.920Z,9.89
2022-12-24T17:55:39.081Z,9.96
2022-12-24T17:58:08.026Z,9.92
2022-12-24T18:00:35.600Z,9.93
2022-12-24T18:03:02.736Z,9.97
2022-12-24T18:05:29.922Z,9.92
2022-12-24T18:07:59.843Z,9.92
2022-12-24T18:10:26.747Z,9.91
2022-12-24T18:12:53.903Z,9.94
2022-12-24T18:15:22.483Z,9.97
2022-12-24T18:17:56.398Z,9.94
2022-12-24T18:20:23.407Z,10.00
2022-12-24T18:22:50.321Z,9.89
2022-12-24T18:25:17.515Z,9.84
2022-12-24T18:27:44.423Z,9.77
2022-12-24T18:30:11.734Z,9.77
2022-12-24T18:32:38.763Z,9.76
2022-12-24T18:35:06.685Z,9.77
2022-12-24T18:37:34.097Z,9.90
2022-12-24T18:40:01.107Z,9.90
2022-12-24T18:42:28.540Z,9.87
2022-12-24T18:44:55.594Z,9.80
2022-12-24T18:47:22.648Z,9.74
2022-12-24T18:49:49.714Z,9.77
2022-12-24T18:52:22.407Z,9.88
2022-12-24T18:54:50.752Z,9.92
2022-12-24T18:57:17.618Z,9.95
2022-12-24T18:59:44.534Z,9.98
2022-12-24T19:02:11.495Z,9.97
2022-12-24T19:04:38.685Z,10.03
2022-12-24T19:07:08.038Z,10.01
2022-12-24T19:09:34.909Z,9.99
2022-12-24T19:12:01.810Z,10.00
2022-12-24T19:14:28.747Z,10.04
2022-12-24T19:16:55.885Z,10.06
2022-12-24T19:19:24.224Z,10.01
2022-12-24T19:21:51.799Z,10.01
2022-12-24T19:24:18.738Z,9.97
2022-12-24T19:26:45.722Z,9.90
2022-12-24T19:29:12.829Z,9.86
2022-12-24T19:31:39.826Z,9.81
2022-12-24T19:34:06.824Z,9.85
2022-12-24T19:36:34.857Z,9.83
2022-12-24T19:39:01.965Z,9.87
2022-12-24T19:41:30.356Z,9.82
2022-12-24T19:43:59.970Z,9.82
2022-12-24T19:46:30.276Z,9.81
2022-12-24T19:49:00.197Z,9.81
2022-12-24T19:51:29.252Z,9.88
2022-12-24T19:53:57.655Z,9.79
2022-12-24T19:56:27.583Z,9.84
2022-12-24T19:58:58.763Z,9.82
2022-12-24T20:01:28.540Z,9.78
2022-12-24T20:03:56.638Z,9.94
2022-12-24T20:06:26.347Z,9.87
2022-12-24T20:09:01.580Z,9.83
2022-12-24T20:13:59.113Z,9.77
2022-12-24T20:16:26.835Z,9.65
2022-12-24T20:18:55.609Z,9.70
2022-12-24T20:21:23.453Z,9.74
2022-12-24T20:23:51.286Z,9.68
2022-12-24T20:26:21.210Z,9.68
2022-12-24T20:28:48.708Z,9.71
2022-12-24T20:31:25.245Z,9.73
2022-12-24T20:33:52.834Z,9.78
2022-12-24T20:36:22.545Z,9.81
2022-12-24T20:38:50.257Z,9.78
2022-12-24T20:41:19.670Z,9.76
2022-12-24T20:43:48.858Z,9.82
2022-12-24T20:46:20.913Z,9.74
2022-12-24T20:48:48.343Z,9.68
2022-12-24T20:51:24.439Z,9.68
2022-12-24T20:53:57.222Z,9.73
2022-12-24T20:56:25.066Z,9.69
2022-12-24T20:58:52.727Z,9.67
2022-12-24T21:01:25.360Z,9.75
2022-12-24T21:04:04.996Z,9.86
2022-12-24T21:06:33.940Z,9.86
2022-12-24T21:09:01.727Z,9.88
2022-12-24T21:11:47.193Z,9.80
2022-12-24T21:14:15.115Z,9.88
2022-12-24T21:16:42.333Z,9.82
2022-12-24T21:19:12.012Z,9.68
2022-12-24T21:21:39.075Z,9.71
2022-12-24T21:24:06.394Z,9.67
2022-12-24T21:26:35.924Z,9.69
2022-12-24T21:29:04.815Z,9.67
2022-12-24T21:31:32.129Z,9.77
2022-12-24T21:33:59.149Z,9.70
2022-12-24T21:36:27.054Z,9.62
2022-12-24T21:38:55.016Z,9.65
2022-12-24T21:41:26.006Z,9.49
2022-12-24T21:43:53.415Z,9.50
2022-12-24T21:46:25.007Z,9.44
2022-12-24T21:49:15.172Z,9.40
2022-12-24T21:51:46.906Z,9.30
2022-12-24T21:54:31.627Z,9.37
2022-12-24T21:57:18.971Z,9.36
2022-12-24T21:59:52.708Z,9.23
2022-12-24T22:02:22.871Z,9.20
2022-12-24T22:04:58.072Z,9.26
2022-12-24T22:07:45.908Z,9.34
2022-12-24T22:10:32.717Z,9.35
2022-12-24T22:13:00.485Z,9.25
2022-12-24T22:15:27.736Z,9.24
2022-12-24T22:17:54.577Z,9.22
2022-12-24T22:20:21.627Z,9.14
2022-12-24T22:22:49.233Z,9.04
2022-12-24T22:25:16.706Z,8.99
2022-12-24T22:27:44.000Z,8.97
2022-12-24T22:30:11.974Z,8.88
2022-12-24T22:32:38.977Z,8.82
2022-12-24T22:35:06.343Z,8.81
2022-12-24T22:37:34.329Z,8.82
2022-12-24T22:40:01.322Z,8.87
2022-12-24T22:42:30.321Z,8.80
2022-12-24T22:44:57.158Z,8.74
2022-12-24T22:47:24.115Z,8.76
2022-12-24T22:49:51.059Z,8.77
2022-12-24T22:52:17.972Z,8.70
2022-12-24T22:54:44.953Z,8.66
2022-12-24T22:57:12.001Z,8.67
2022-12-24T22:59:40.024Z,8.63
2022-12-24T23:02:07.684Z,8.62
2022-12-24T23:04:38.918Z,8.52
2022-12-24T23:07:08.612Z,8.50
2022-12-24T23:09:35.778Z,8.49
2022-12-24T23:12:03.300Z,8.47
2022-12-24T23:14:49.033Z,8.36
2022-12-24T23:17:16.071Z,8.31
2022-12-24T23:19:43.438Z,8.30
2022-12-24T23:22:12.886Z,8.38
2022-12-24T23:24:41.954Z,8.30
2022-12-24T23:27:09.097Z,8.24
2022-12-24T23:29:36.429Z,8.25
2022-12-24T23:32:03.628Z,8.24
2022-12-24T23:34:30.627Z,8.32
2022-12-24T23:36:57.648Z,8.24
2022-12-24T23:39:24.762Z,8.27
2022-12-24T23:41:51.678Z,8.29
2022-12-24T23:44:18.729Z,8.31
2022-12-24T23:46:45.753Z,8.17
2022-12-24T23:49:15.893Z,8.12
2022-12-24T23:51:42.786Z,8.13
2022-12-24T23:54:10.044Z,8.13
2022-12-24T23:56:37.004Z,8.11
2022-12-24T23:59:04.331Z,8.14
